Time;durP1;ratioP1;P1;durP2;ratioP2;P2;SDS_P1;SDS_P2;PMS_P1;PMS_P2;Temp;Humidity;BMP_temperature;BMP_pressure;BME280_temperature;BME280_humidity;BME280_pressure;Samples;Min_cycle;Max_cycle;Signal;HPM_P1;HPM_P2
2021/07/21 00:01:35;;;;;;;29.20;18.38;;;21.20;99.90;;;;;;5064471;28;20532;-63
2021/07/21 00:04:01;;;;;;;29.45;19.42;;;21.20;99.90;;;;;;5066998;28;20164;-63
2021/07/21 00:06:27;;;;;;;28.95;18.85;;;21.20;99.90;;;;;;5066798;28;20175;-64
2021/07/21 00:08:52;;;;;;;32.45;19.23;;;21.10;99.90;;;;;;5066692;28;20205;-63
2021/07/21 00:14:10;;;;;;;28.02;19.38;;;21.00;99.90;;;;;;5066825;28;20168;-63
2021/07/21 00:16:38;;;;;;;33.17;20.38;;;21.20;99.90;;;;;;5066700;28;20157;-63
2021/07/21 00:21:51;;;;;;;31.83;19.55;;;21.30;99.90;;;;;;5064071;28;20210;-63
2021/07/21 00:24:17;;;;;;;31.40;19.42;;;21.10;99.90;;;;;;5066504;28;20227;-64
2021/07/21 00:26:43;;;;;;;36.85;19.48;;;21.00;99.90;;;;;;5066340;28;20522;-63
2021/07/21 00:29:08;;;;;;;34.80;20.38;;;20.90;99.90;;;;;;5066497;28;20160;-63
2021/07/21 00:31:34;;;;;;;32.05;20.10;;;20.80;99.90;;;;;;5063728;28;20259;-63
2021/07/21 00:34:00;;;;;;;31.60;20.40;;;20.60;99.90;;;;;;5066441;28;20187;-64
2021/07/21 00:36:26;;;;;;;31.20;19.08;;;20.60;99.90;;;;;;5066114;28;20183;-63
2021/07/21 00:38:52;;;;;;;31.55;19.33;;;20.50;99.90;;;;;;5064951;28;20167;-63
2021/07/21 00:41:18;;;;;;;31.10;20.40;;;20.50;99.90;;;;;;5063245;28;20180;-63
2021/07/21 00:43:44;;;;;;;34.00;20.83;;;20.50;99.90;;;;;;5066284;28;20161;-63
2021/07/21 00:46:09;;;;;;;36.53;20.77;;;20.40;99.90;;;;;;5066275;28;20173;-63
2021/07/21 00:48:35;;;;;;;33.47;20.60;;;20.60;99.90;;;;;;5066042;28;20172;-63
2021/07/21 00:51:01;;;;;;;37.03;21.13;;;20.60;99.90;;;;;;5063376;28;20179;-63
2021/07/21 00:53:27;;;;;;;35.95;20.67;;;20.50;99.90;;;;;;5065939;28;20161;-63
2021/07/21 00:55:53;;;;;;;31.77;20.05;;;20.50;99.90;;;;;;5065301;28;20172;-63
2021/07/21 00:58:18;;;;;;;36.88;21.27;;;20.40;99.90;;;;;;5065736;28;20180;-63
2021/07/21 01:00:44;;;;;;;36.55;21.83;;;20.30;99.90;;;;;;5063303;28;20169;-63
2021/07/21 01:03:10;;;;;;;33.35;20.95;;;20.20;99.90;;;;;;5065865;28;20176;-64
2021/07/21 01:05:41;;;;;;;33.30;21.20;;;20.10;99.90;;;;;;5065967;28;20559;-63
2021/07/21 01:08:09;;;;;;;38.08;22.27;;;20.10;99.90;;;;;;5065874;28;20231;-63
2021/07/21 01:10:35;;;;;;;32.85;20.63;;;20.20;99.90;;;;;;5061837;28;20311;-64
2021/07/21 01:13:16;;;;;;;30.42;20.33;;;20.20;99.90;;;;;;5065611;28;20192;-63
2021/07/21 01:15:53;;;;;;;34.67;21.75;;;20.10;99.90;;;;;;5065836;28;20219;-64
2021/07/21 01:18:56;;;;;;;36.00;21.75;;;20.20;99.90;;;;;;5065796;28;20178;-63
2021/07/21 01:21:27;;;;;;;32.05;21.10;;;20.30;99.90;;;;;;5040587;28;20757;-63
2021/07/21 01:24:14;;;;;;;31.40;21.15;;;20.40;99.90;;;;;;5043544;28;20191;-63
2021/07/21 01:26:51;;;;;;;32.38;20.42;;;20.20;99.90;;;;;;5043363;28;20200;-63
2021/07/21 01:29:21;;;;;;;31.02;21.15;;;20.20;99.90;;;;;;5043657;28;20207;-63
2021/07/21 01:31:48;;;;;;;38.22;22.52;;;20.10;99.90;;;;;;5040682;28;20201;-63
2021/07/21 01:34:14;;;;;;;32.30;21.27;;;20.10;99.90;;;;;;5043249;28;20196;-63
2021/07/21 01:36:43;;;;;;;33.70;20.73;;;20.00;99.90;;;;;;5043535;28;20180;-63
2021/07/21 01:39:16;;;;;;;34.67;21.35;;;20.10;99.90;;;;;;5043427;28;20169;-63
2021/07/21 01:41:47;;;;;;;37.22;21.70;;;20.10;99.90;;;;;;5040432;28;20211;-63
2021/07/21 01:44:18;;;;;;;33.55;20.90;;;20.00;99.90;;;;;;5043460;28;20174;-63
2021/07/21 01:46:45;;;;;;;39.70;22.98;;;19.90;99.90;;;;;;5043180;28;20257;-63
2021/07/21 01:49:11;;;;;;;32.60;20.45;;;19.90;99.90;;;;;;5043312;28;20173;-63
2021/07/21 01:51:41;;;;;;;33.47;20.85;;;19.80;99.90;;;;;;5040292;28;20296;-63
2021/07/21 01:54:09;;;;;;;33.53;19.23;;;19.80;99.90;;;;;;5043347;28;20161;-63
2021/07/21 01:56:36;;;;;;;32.40;19.70;;;19.70;99.90;;;;;;5044681;28;20162;-63
2021/07/21 01:59:03;;;;;;;29.67;19.17;;;19.70;99.90;;;;;;5065401;28;20172;-63
2021/07/21 02:01:31;;;;;;;28.25;19.25;;;19.50;99.90;;;;;;5062648;28;20236;-63
2021/07/21 02:03:58;;;;;;;31.70;19.98;;;19.40;99.90;;;;;;5065285;28;20199;-63
2021/07/21 02:06:25;;;;;;;32.40;19.15;;;19.40;99.90;;;;;;5065034;28;20165;-63
2021/07/21 02:08:55;;;;;;;30.58;19.33;;;19.50;99.90;;;;;;5067774;28;20219;-63
2021/07/21 02:11:21;;;;;;;30.88;19.75;;;19.50;99.90;;;;;;5066127;28;20230;-64
2021/07/21 02:13:48;;;;;;;36.25;20.77;;;19.50;99.90;;;;;;5069303;28;20165;-63
2021/07/21 02:16:15;;;;;;;37.00;20.50;;;19.60;99.90;;;;;;5068844;28;20157;-63
2021/07/21 02:18:41;;;;;;;35.05;20.48;;;19.50;99.90;;;;;;5069087;28;20165;-63
2021/07/21 02:21:08;;;;;;;35.17;21.58;;;19.50;99.90;;;;;;5066210;28;20168;-63
2021/07/21 02:23:34;;;;;;;36.80;21.83;;;19.40;99.90;;;;;;5068855;28;20165;-63
2021/07/21 02:26:01;;;;;;;32.03;21.05;;;19.20;99.90;;;;;;5068604;28;20165;-63
2021/07/21 02:28:28;;;;;;;31.13;19.58;;;19.20;99.90;;;;;;5068784;28;20672;-63
2021/07/21 02:30:56;;;;;;;33.95;20.00;;;19.00;99.90;;;;;;5065927;28;20222;-63
2021/07/21 02:33:24;;;;;;;31.30;19.83;;;19.00;99.90;;;;;;5068592;28;20172;-63
2021/07/21 02:35:50;;;;;;;31.13;20.60;;;19.00;99.90;;;;;;5068818;28;20224;-63
2021/07/21 02:38:16;;;;;;;30.52;19.55;;;18.90;99.90;;;;;;5068726;28;20165;-63
2021/07/21 02:40:43;;;;;;;30.88;19.88;;;18.90;99.90;;;;;;5065573;28;20199;-63
2021/07/21 02:43:08;;;;;;;34.08;20.02;;;19.00;99.90;;;;;;5068755;28;20676;-63
2021/07/21 02:45:35;;;;;;;28.92;20.10;;;19.00;99.90;;;;;;5068492;28;20161;-63
2021/07/21 02:48:05;;;;;;;33.22;21.23;;;19.00;99.90;;;;;;5068606;28;20565;-63
2021/07/21 02:50:31;;;;;;;36.60;20.60;;;18.90;99.90;;;;;;5066502;28;20183;-63
2021/07/21 02:53:02;;;;;;;37.45;21.15;;;19.00;99.90;;;;;;5067919;28;20230;-63
2021/07/21 02:55:45;;;;;;;35.70;21.48;;;19.20;99.90;;;;;;5067995;28;20169;-63
2021/07/21 02:58:48;;;;;;;29.80;19.67;;;19.10;99.90;;;;;;5068430;28;20152;-63
2021/07/21 03:01:18;;;;;;;33.00;20.00;;;18.80;99.90;;;;;;5065508;28;20258;-63
2021/07/21 03:03:46;;;;;;;34.10;19.83;;;18.70;99.90;;;;;;5067951;28;20438;-63
2021/07/21 03:06:14;;;;;;;31.33;21.02;;;18.60;99.90;;;;;;5068179;28;20199;-63
2021/07/21 03:08:42;;;;;;;32.08;19.83;;;18.60;99.90;;;;;;5067935;28;20208;-63
2021/07/21 03:11:11;;;;;;;34.13;18.92;;;18.50;99.90;;;;;;5065028;28;20617;-63
2021/07/21 03:13:48;;;;;;;33.40;21.30;;;18.50;99.90;;;;;;5068045;28;20161;-63
2021/07/21 03:16:17;;;;;;;34.22;20.42;;;18.60;99.90;;;;;;5067948;28;20231;-63
2021/07/21 03:18:46;;;;;;;34.65;20.20;;;18.60;99.90;;;;;;5067577;28;20220;-63
2021/07/21 03:21:13;;;;;;;32.88;19.63;;;18.70;99.90;;;;;;5064735;28;20171;-63
2021/07/21 03:23:42;;;;;;;37.08;21.55;;;18.80;99.90;;;;;;5067873;28;20189;-63
2021/07/21 03:26:08;;;;;;;35.75;20.90;;;18.60;99.90;;;;;;5067497;28;20168;-63
2021/07/21 03:28:37;;;;;;;37.20;22.08;;;18.60;99.90;;;;;;5066395;28;20164;-63
2021/07/21 03:31:03;;;;;;;33.45;20.90;;;18.70;99.90;;;;;;5064967;28;20243;-63
2021/07/21 03:33:30;;;;;;;34.20;21.35;;;18.70;99.90;;;;;;5067630;28;20535;-63
2021/07/21 03:36:04;;;;;;;42.75;22.35;;;18.50;99.90;;;;;;5067741;28;20199;-63
2021/07/21 03:38:30;;;;;;;36.85;21.85;;;18.50;99.90;;;;;;5067348;28;20187;-65
2021/07/21 03:40:57;;;;;;;36.63;20.65;;;18.40;99.90;;;;;;5064564;28;20169;-63
2021/07/21 03:43:24;;;;;;;37.42;21.58;;;18.20;99.90;;;;;;5067436;28;20161;-63
2021/07/21 03:45:51;;;;;;;33.58;20.85;;;18.20;99.90;;;;;;5067435;28;20642;-63
2021/07/21 03:48:18;;;;;;;31.30;19.92;;;18.20;99.90;;;;;;5065819;28;20161;-63
2021/07/21 03:50:44;;;;;;;35.80;20.95;;;18.10;99.90;;;;;;5064702;28;20175;-63
2021/07/21 03:53:12;;;;;;;29.80;19.77;;;18.20;99.90;;;;;;5067413;28;20422;-63
2021/07/21 03:55:39;;;;;;;33.85;21.00;;;18.20;99.90;;;;;;5067203;28;20157;-63
2021/07/21 03:58:05;;;;;;;37.47;20.10;;;18.30;99.90;;;;;;5067140;28;20154;-63
2021/07/21 04:00:31;;;;;;;33.60;20.10;;;18.20;99.90;;;;;;5065127;28;20191;-63
2021/07/21 04:02:59;;;;;;;34.83;21.00;;;18.10;99.90;;;;;;5066526;28;20213;-63
2021/07/21 04:05:27;;;;;;;37.38;21.48;;;18.00;99.90;;;;;;5066748;28;20160;-63
2021/07/21 04:07:54;;;;;;;37.08;21.75;;;18.20;99.90;;;;;;5066347;28;20215;-63
2021/07/21 04:10:20;;;;;;;37.15;21.27;;;18.30;99.90;;;;;;5065883;28;20584;-63
2021/07/21 04:12:51;;;;;;;33.58;21.00;;;18.30;99.90;;;;;;5065252;28;20192;-63
2021/07/21 04:15:21;;;;;;;34.08;19.50;;;18.10;99.90;;;;;;5066707;28;20182;-63
2021/07/21 04:17:48;;;;;;;34.80;20.52;;;18.10;99.90;;;;;;5066746;28;20157;-63
2021/07/21 04:20:15;;;;;;;34.47;20.90;;;18.10;99.90;;;;;;5066531;28;20173;-62
2021/07/21 04:22:42;;;;;;;37.65;20.80;;;18.20;99.90;;;;;;5064471;28;20164;-64
2021/07/21 04:25:10;;;;;;;36.75;22.00;;;18.10;99.90;;;;;;5066737;28;20156;-63
2021/07/21 04:27:36;;;;;;;38.92;21.90;;;18.10;99.90;;;;;;5064840;28;20176;-63
2021/07/21 04:30:03;;;;;;;36.22;21.13;;;18.10;99.90;;;;;;5066702;28;20160;-63
2021/07/21 04:32:29;;;;;;;37.63;22.13;;;18.10;99.90;;;;;;5063393;28;20197;-62
2021/07/21 04:34:56;;;;;;;39.53;23.23;;;18.20;99.90;;;;;;5066470;28;20167;-63
2021/07/21 04:37:23;;;;;;;38.33;21.25;;;18.20;99.90;;;;;;5066165;28;20248;-63
2021/07/21 04:39:51;;;;;;;36.60;21.25;;;18.20;99.90;;;;;;5066507;28;20168;-62
2021/07/21 04:42:16;;;;;;;35.50;21.92;;;18.20;99.90;;;;;;5063209;28;20344;-63
2021/07/21 04:44:44;;;;;;;37.10;20.70;;;18.20;99.90;;;;;;5066459;28;20180;-63
2021/07/21 04:47:11;;;;;;;37.90;20.67;;;18.20;99.90;;;;;;5066172;28;20167;-63
2021/07/21 04:49:39;;;;;;;35.05;21.10;;;18.20;99.90;;;;;;5066168;28;20221;-63
2021/07/21 04:52:06;;;;;;;33.75;21.13;;;18.20;99.90;;;;;;5063428;28;20203;-63
2021/07/21 04:54:33;;;;;;;43.15;21.65;;;18.20;99.90;;;;;;5065577;28;20168;-63
2021/07/21 04:56:59;;;;;;;33.85;20.42;;;18.20;99.90;;;;;;5065583;28;20179;-63
2021/07/21 04:59:25;;;;;;;38.35;21.02;;;18.20;99.90;;;;;;5065848;28;20211;-63
2021/07/21 05:01:51;;;;;;;34.53;21.35;;;18.20;99.90;;;;;;5063404;28;20638;-63
2021/07/21 05:04:17;;;;;;;33.78;21.52;;;18.20;99.90;;;;;;5065649;28;20165;-63
2021/07/21 05:06:44;;;;;;;39.80;23.15;;;18.20;99.90;;;;;;5065990;28;20168;-63
2021/07/21 05:09:11;;;;;;;37.35;21.88;;;18.30;99.90;;;;;;5065570;28;20220;-63
2021/07/21 05:11:36;;;;;;;46.05;23.90;;;18.40;99.90;;;;;;5062743;28;20204;-63
2021/07/21 05:14:03;;;;;;;38.58;21.40;;;18.50;99.90;;;;;;5065838;28;20192;-63
2021/07/21 05:16:29;;;;;;;34.10;21.52;;;18.50;99.90;;;;;;5065476;28;20161;-63
2021/07/21 05:18:55;;;;;;;39.13;20.73;;;18.60;99.90;;;;;;5065575;28;20168;-63
2021/07/21 05:21:22;;;;;;;33.15;21.35;;;18.60;99.90;;;;;;5063019;28;20160;-63
2021/07/21 05:23:49;;;;;;;41.38;21.27;;;18.60;99.90;;;;;;5065715;28;20173;-63
2021/07/21 05:26:14;;;;;;;37.75;21.08;;;18.60;99.90;;;;;;5063807;28;20204;-63
2021/07/21 05:28:41;;;;;;;34.00;20.60;;;18.70;99.90;;;;;;5065846;28;20165;-63
2021/07/21 05:31:08;;;;;;;35.42;19.60;;;18.70;99.90;;;;;;5063047;28;20169;-63
2021/07/21 05:33:34;;;;;;;34.67;20.95;;;18.60;99.90;;;;;;5065356;28;20186;-62
2021/07/21 05:36:00;;;;;;;38.25;21.55;;;18.70;99.90;;;;;;5064192;28;20165;-63
2021/07/21 05:38:26;;;;;;;32.67;20.55;;;18.80;99.90;;;;;;5065321;28;20224;-63
2021/07/21 05:40:51;;;;;;;41.63;22.20;;;18.80;99.90;;;;;;5062663;28;20183;-63
2021/07/21 05:43:17;;;;;;;39.63;20.92;;;18.90;99.90;;;;;;5067415;28;20161;-63
2021/07/21 05:45:43;;;;;;;41.35;22.15;;;19.00;99.90;;;;;;5069616;28;20172;-63
2021/07/21 05:48:09;;;;;;;37.63;20.90;;;19.00;99.90;;;;;;5069444;28;20218;-63
2021/07/21 05:50:35;;;;;;;40.40;22.27;;;19.10;99.90;;;;;;5067034;28;20938;-63
2021/07/21 05:53:01;;;;;;;33.92;20.67;;;19.20;99.90;;;;;;5069321;28;20206;-63
2021/07/21 05:55:27;;;;;;;35.20;21.63;;;19.30;99.90;;;;;;5069231;28;20195;-63
2021/07/21 05:57:53;;;;;;;36.70;21.23;;;19.40;99.90;;;;;;5069345;28;20518;-63
2021/07/21 06:00:18;;;;;;;36.05;21.58;;;19.40;99.90;;;;;;5068577;28;20153;-63
2021/07/21 06:02:44;;;;;;;41.72;21.58;;;19.60;99.90;;;;;;5067625;28;20167;-63
2021/07/21 06:05:10;;;;;;;33.95;22.25;;;19.70;99.90;;;;;;5069294;28;20161;-63
2021/07/21 06:07:36;;;;;;;38.70;21.10;;;19.80;99.90;;;;;;5068810;28;20219;-63
2021/07/21 06:10:04;;;;;;;35.50;21.42;;;19.90;99.90;;;;;;5067903;28;20187;-63
2021/07/21 06:12:30;;;;;;;36.92;21.90;;;19.90;99.90;;;;;;5066017;28;20197;-63
2021/07/21 06:14:55;;;;;;;39.88;22.17;;;19.90;99.90;;;;;;5068985;28;20201;-63
2021/07/21 06:17:21;;;;;;;39.40;22.27;;;19.90;99.90;;;;;;5068815;28;20168;-63
2021/07/21 06:19:47;;;;;;;32.30;21.05;;;20.00;99.90;;;;;;5068951;28;20168;-63
2021/07/21 06:22:14;;;;;;;36.78;20.13;;;20.00;99.90;;;;;;5066452;28;20172;-63
2021/07/21 06:24:40;;;;;;;33.15;20.50;;;20.10;99.90;;;;;;5068857;28;20191;-63
2021/07/21 06:27:06;;;;;;;29.15;19.63;;;20.10;99.90;;;;;;5068379;28;20192;-63
2021/07/21 06:29:32;;;;;;;34.25;20.02;;;20.20;99.90;;;;;;5068532;28;20218;-64
2021/07/21 06:31:57;;;;;;;33.67;18.35;;;20.30;99.90;;;;;;5064754;28;20287;-63
2021/07/21 06:34:23;;;;;;;31.60;18.67;;;20.40;99.90;;;;;;5068609;28;20192;-63
2021/07/21 06:36:49;;;;;;;30.83;18.08;;;20.50;99.90;;;;;;5068554;28;20191;-63
2021/07/21 06:39:14;;;;;;;33.20;18.73;;;20.50;99.90;;;;;;5068353;28;20165;-63
2021/07/21 06:41:40;;;;;;;29.90;18.52;;;20.60;99.90;;;;;;5065582;28;20176;-63
2021/07/21 06:44:06;;;;;;;29.17;16.40;;;20.70;99.90;;;;;;5068486;28;20192;-63
2021/07/21 06:46:32;;;;;;;32.05;16.95;;;20.80;99.90;;;;;;5068403;28;20165;-63
2021/07/21 06:48:58;;;;;;;23.50;15.45;;;21.10;99.90;;;;;;5068417;28;20234;-63
2021/07/21 06:51:25;;;;;;;34.83;16.67;;;21.10;99.90;;;;;;5065389;28;20185;-65
2021/07/21 06:53:51;;;;;;;32.65;17.48;;;21.10;99.90;;;;;;5067307;28;20195;-63
2021/07/21 06:56:17;;;;;;;27.90;17.33;;;21.50;99.90;;;;;;5067274;28;20176;-63
2021/07/21 06:58:43;;;;;;;27.50;17.08;;;21.70;99.90;;;;;;5068326;28;20157;-63
2021/07/21 07:01:08;;;;;;;30.88;16.33;;;21.60;99.90;;;;;;5065743;28;20511;-64
2021/07/21 07:03:35;;;;;;;26.55;16.67;;;21.50;99.90;;;;;;5068001;28;20161;-63
2021/07/21 07:06:02;;;;;;;30.50;16.17;;;21.40;99.90;;;;;;5068146;28;20190;-64
2021/07/21 07:08:28;;;;;;;25.85;15.98;;;21.50;99.90;;;;;;5067639;28;20240;-63
2021/07/21 07:10:53;;;;;;;28.63;16.73;;;21.50;99.90;;;;;;5063573;28;20165;-63
2021/07/21 07:13:19;;;;;;;24.65;14.95;;;21.60;99.90;;;;;;5067971;28;20192;-64
2021/07/21 07:15:45;;;;;;;28.08;16.40;;;21.60;99.90;;;;;;5067810;28;20181;-63
2021/07/21 07:18:14;;;;;;;31.65;15.50;;;21.80;99.90;;;;;;5067699;28;20180;-64
2021/07/21 07:20:45;;;;;;;26.13;15.18;;;21.90;99.90;;;;;;5065302;28;20615;-63
2021/07/21 07:23:11;;;;;;;24.85;15.70;;;22.10;99.90;;;;;;5067787;28;20295;-63
2021/07/21 07:25:38;;;;;;;23.95;13.75;;;22.40;99.90;;;;;;5067325;28;20164;-63
2021/07/21 07:28:04;;;;;;;20.15;13.10;;;22.40;99.90;;;;;;5067670;28;20176;-63
2021/07/21 07:30:30;;;;;;;27.45;14.30;;;22.30;99.90;;;;;;5065432;28;20172;-64
2021/07/21 07:32:56;;;;;;;19.38;13.40;;;22.10;99.90;;;;;;5065964;28;20219;-64
2021/07/21 07:35:22;;;;;;;26.55;12.30;;;22.20;99.90;;;;;;5066873;28;20182;-63
2021/07/21 07:37:47;;;;;;;20.55;12.05;;;22.30;99.90;;;;;;5066086;28;20196;-64
2021/07/21 07:40:14;;;;;;;21.73;11.95;;;22.60;99.90;;;;;;5066056;28;20168;-63
2021/07/21 07:42:39;;;;;;;20.38;12.00;;;22.50;99.90;;;;;;5064710;28;20173;-63
2021/07/21 07:45:06;;;;;;;22.95;11.38;;;22.70;99.90;;;;;;5066140;28;20168;-63
2021/07/21 07:47:33;;;;;;;14.27;10.60;;;22.90;99.90;;;;;;5067134;28;20203;-64
2021/07/21 07:50:00;;;;;;;18.02;11.68;;;23.00;99.90;;;;;;5067321;28;20216;-63
2021/07/21 07:52:26;;;;;;;19.23;10.82;;;22.90;99.90;;;;;;5062426;28;20208;-64
2021/07/21 07:54:52;;;;;;;21.63;10.77;;;22.80;99.90;;;;;;5065613;28;20191;-63
2021/07/21 07:57:19;;;;;;;18.80;11.45;;;23.00;99.90;;;;;;5066111;28;20224;-63
2021/07/21 07:59:44;;;;;;;21.60;10.45;;;23.10;99.90;;;;;;5066749;28;20650;-63
2021/07/21 08:02:10;;;;;;;13.90;10.55;;;23.30;99.90;;;;;;5064749;28;20181;-64
2021/07/21 08:04:36;;;;;;;19.13;10.15;;;23.20;99.90;;;;;;5066937;28;20177;-63
2021/07/21 08:07:02;;;;;;;16.02;11.13;;;23.20;99.90;;;;;;5065816;28;20203;-63
2021/07/21 08:09:27;;;;;;;13.80;9.75;;;23.20;99.90;;;;;;5066633;28;20192;-64
2021/07/21 08:11:56;;;;;;;21.00;9.25;;;23.10;99.90;;;;;;5064012;28;20203;-64
2021/07/21 08:14:22;;;;;;;16.15;8.73;;;23.20;99.90;;;;;;5066738;28;20179;-63
2021/07/21 08:16:49;;;;;;;13.10;8.50;;;23.60;99.90;;;;;;5066660;28;20188;-64
2021/07/21 08:19:15;;;;;;;14.80;9.45;;;23.60;99.90;;;;;;5066401;28;20184;-63
2021/07/21 08:21:40;;;;;;;17.05;9.30;;;23.80;99.90;;;;;;5064012;28;20267;-63
2021/07/21 08:24:06;;;;;;;14.38;10.27;;;23.60;99.90;;;;;;5066759;28;20169;-64
2021/07/21 08:26:32;;;;;;;17.85;9.20;;;23.60;99.90;;;;;;5065876;28;20188;-64
2021/07/21 08:28:58;;;;;;;17.13;10.15;;;23.60;99.90;;;;;;5065092;28;20195;-64
2021/07/21 08:31:23;;;;;;;23.67;9.23;;;23.80;99.90;;;;;;5063606;28;20533;-64
2021/07/21 08:33:49;;;;;;;18.08;10.13;;;23.70;99.90;;;;;;5066308;28;20187;-64
2021/07/21 08:36:15;;;;;;;18.75;9.52;;;23.60;99.90;;;;;;5066251;28;20160;-63
2021/07/21 08:38:41;;;;;;;21.98;9.90;;;23.70;99.90;;;;;;5066383;28;20225;-64
2021/07/21 08:41:06;;;;;;;21.40;10.40;;;23.60;99.90;;;;;;5063485;28;20172;-63
2021/07/21 08:43:33;;;;;;;15.18;9.90;;;23.80;99.90;;;;;;5065166;28;20145;-64
2021/07/21 08:45:59;;;;;;;17.77;8.77;;;24.00;99.90;;;;;;5065807;28;20184;-64
2021/07/21 08:48:24;;;;;;;17.58;10.13;;;23.80;99.90;;;;;;5065721;28;20184;-64
2021/07/21 08:50:50;;;;;;;13.75;9.48;;;23.80;99.90;;;;;;5063497;28;20160;-64
2021/07/21 08:53:19;;;;;;;14.57;10.20;;;23.90;99.90;;;;;;5065695;28;20222;-64
2021/07/21 08:55:47;;;;;;;17.75;9.25;;;24.00;99.90;;;;;;5065153;28;20165;-64
2021/07/21 08:58:12;;;;;;;14.13;8.52;;;24.20;99.90;;;;;;5065259;28;20192;-63
2021/07/21 09:00:38;;;;;;;18.90;9.70;;;24.20;99.90;;;;;;5061078;28;20424;-63
2021/07/21 09:03:04;;;;;;;17.65;10.32;;;24.30;99.90;;;;;;5065656;28;20179;-64
2021/07/21 09:05:30;;;;;;;14.82;10.45;;;24.40;99.90;;;;;;5065819;28;20187;-64
2021/07/21 09:07:56;;;;;;;17.05;10.48;;;24.50;99.90;;;;;;5064277;28;20628;-63
2021/07/21 09:10:22;;;;;;;16.92;11.02;;;24.70;99.90;;;;;;5064784;28;20187;-63
2021/07/21 09:12:49;;;;;;;16.13;10.52;;;24.80;99.90;;;;;;5063977;28;20231;-64
2021/07/21 09:15:18;;;;;;;18.98;10.18;;;25.00;99.90;;;;;;5063904;28;20175;-64
2021/07/21 09:17:57;;;;;;;15.90;10.02;;;25.00;99.90;;;;;;5064784;28;20232;-64
2021/07/21 09:20:23;;;;;;;21.20;9.63;;;24.90;99.90;;;;;;5064172;28;20165;-65
2021/07/21 09:22:53;;;;;;;19.58;8.93;;;24.60;99.90;;;;;;5063230;28;20181;-64
2021/07/21 09:25:23;;;;;;;21.35;10.82;;;24.70;99.90;;;;;;5065619;28;20165;-64
2021/07/21 09:27:55;;;;;;;12.95;9.73;;;24.80;99.90;;;;;;5065394;28;20199;-64
2021/07/21 09:30:27;;;;;;;17.95;9.35;;;25.10;99.90;;;;;;5064678;28;20571;-64
2021/07/21 09:33:06;;;;;;;13.07;8.90;;;25.20;99.90;;;;;;5064277;28;20188;-64
2021/07/21 09:35:37;;;;;;;12.23;9.10;;;25.10;99.90;;;;;;5065423;28;20156;-64
2021/07/21 09:38:12;;;;;;;15.90;9.85;;;25.20;99.90;;;;;;5065338;28;20161;-64
2021/07/21 09:40:43;;;;;;;11.65;9.00;;;25.20;99.90;;;;;;5062823;28;20186;-65
2021/07/21 09:43:14;;;;;;;14.18;9.30;;;25.30;99.90;;;;;;5065040;28;20211;-64
2021/07/21 09:45:42;;;;;;;12.15;9.18;;;25.60;99.90;;;;;;5065589;28;20184;-64
2021/07/21 09:48:08;;;;;;;10.88;7.97;;;25.60;99.90;;;;;;5065491;28;20524;-64
2021/07/21 09:50:35;;;;;;;12.10;8.98;;;25.70;99.90;;;;;;5063085;28;20453;-64
2021/07/21 09:53:05;;;;;;;13.68;8.63;;;25.80;99.90;;;;;;5064952;28;20207;-64
2021/07/21 09:55:36;;;;;;;15.05;10.18;;;25.90;99.90;;;;;;5065374;28;20247;-64
2021/07/21 09:58:07;;;;;;;13.45;9.13;;;26.00;99.90;;;;;;5064951;28;20173;-64
2021/07/21 10:00:42;;;;;;;14.10;9.40;;;26.10;99.90;;;;;;5062993;28;20226;-64
2021/07/21 10:03:12;;;;;;;10.70;8.57;;;26.30;99.90;;;;;;5065179;28;20541;-64
2021/07/21 10:05:59;;;;;;;14.38;9.38;;;26.10;99.90;;;;;;5065317;28;20161;-64
2021/07/21 10:08:32;;;;;;;14.98;8.75;;;26.10;99.90;;;;;;5064918;28;20227;-64
2021/07/21 10:11:18;;;;;;;12.43;8.32;;;26.20;99.90;;;;;;5062355;28;20169;-64
2021/07/21 10:13:44;;;;;;;12.40;8.88;;;26.30;99.90;;;;;;5063690;28;20242;-64
2021/07/21 10:16:09;;;;;;;11.35;8.35;;;26.40;99.90;;;;;;5065455;28;20634;-64
2021/07/21 10:18:35;;;;;;;12.00;9.70;;;26.50;99.90;;;;;;5065037;28;20273;-64
2021/07/21 10:21:00;;;;;;;12.88;8.73;;;26.60;99.90;;;;;;5062539;28;20162;-64
2021/07/21 10:23:26;;;;;;;13.75;8.70;;;26.70;99.90;;;;;;5064958;28;20169;-64
2021/07/21 10:25:52;;;;;;;9.80;8.52;;;26.80;99.90;;;;;;5064848;28;20164;-64
2021/07/21 10:28:18;;;;;;;12.43;9.23;;;26.90;99.90;;;;;;5065114;28;20164;-64
2021/07/21 10:30:44;;;;;;;14.13;8.57;;;27.10;99.90;;;;;;5066241;28;20188;-64
2021/07/21 10:33:11;;;;;;;15.02;9.63;;;27.20;99.90;;;;;;5068732;28;20235;-64
2021/07/21 10:35:36;;;;;;;10.35;8.05;;;27.10;99.90;;;;;;5068744;28;20168;-64
2021/07/21 10:38:03;;;;;;;13.20;7.82;;;27.20;99.90;;;;;;5068553;28;20161;-64
2021/07/21 10:40:32;;;;;;;10.82;8.25;;;27.20;99.90;;;;;;5065601;28;20354;-64
2021/07/21 10:42:59;;;;;;;11.15;9.10;;;27.20;99.90;;;;;;5067797;28;20173;-64
2021/07/21 10:45:32;;;;;;;12.82;8.85;;;27.30;99.90;;;;;;5068468;28;20161;-64
2021/07/21 10:48:05;;;;;;;12.60;8.43;;;27.40;99.90;;;;;;5068466;28;20164;-64
2021/07/21 10:59:13;;;;;;;15.73;8.00;;;27.80;99.90;;;;;;5068174;28;20245;-64
2021/07/21 11:01:53;;;;;;;11.15;8.27;;;28.00;99.90;;;;;;5065642;28;20169;-64
2021/07/21 11:04:20;;;;;;;10.30;7.65;;;28.30;99.90;;;;;;5067823;28;20294;-64
2021/07/21 11:06:51;;;;;;;10.05;8.32;;;28.30;99.90;;;;;;5068139;28;20160;-64
2021/07/21 11:09:25;;;;;;;11.43;7.68;;;28.50;99.90;;;;;;5067589;28;20226;-64
2021/07/21 11:11:58;;;;;;;11.23;9.05;;;28.40;99.90;;;;;;5065090;28;20210;-64
2021/07/21 11:14:26;;;;;;;11.10;7.95;;;28.40;99.90;;;;;;5067827;28;20165;-64
2021/07/21 11:16:53;;;;;;;8.80;7.70;;;28.60;99.90;;;;;;5067820;28;20161;-64
2021/07/21 11:19:28;;;;;;;11.88;8.00;;;28.50;99.90;;;;;;5067710;28;20183;-64
2021/07/21 11:22:03;;;;;;;12.10;8.10;;;28.50;99.90;;;;;;5064010;28;20223;-64
2021/07/21 11:24:31;;;;;;;12.55;8.75;;;28.60;99.90;;;;;;5067488;28;20223;-64
2021/07/21 11:26:57;;;;;;;13.63;7.97;;;28.80;99.90;;;;;;5067239;28;20239;-64
2021/07/21 11:29:33;;;;;;;9.80;7.68;;;29.00;99.90;;;;;;5067317;28;20165;-64
2021/07/21 11:32:00;;;;;;;9.88;7.85;;;29.10;99.90;;;;;;5064972;28;20191;-64
2021/07/21 11:34:29;;;;;;;12.18;8.23;;;29.20;99.90;;;;;;5067053;28;20156;-64
2021/07/21 11:36:58;;;;;;;8.70;7.75;;;29.30;99.90;;;;;;5067250;28;20218;-64
2021/07/21 11:39:35;;;;;;;12.63;7.88;;;29.50;99.90;;;;;;5067215;28;20210;-64
2021/07/21 11:42:07;;;;;;;9.05;8.15;;;29.50;99.90;;;;;;5063336;28;20176;-64
2021/07/21 11:44:39;;;;;;;9.85;7.45;;;29.60;99.90;;;;;;5067211;28;20172;-64
2021/07/21 11:47:15;;;;;;;11.18;7.15;;;29.70;99.90;;;;;;5067267;28;20171;-64
2021/07/21 11:49:51;;;;;;;9.80;8.57;;;30.00;99.90;;;;;;5067272;28;20164;-64
2021/07/21 11:52:20;;;;;;;9.13;7.10;;;29.90;99.90;;;;;;5064286;28;20345;-64
2021/07/21 11:54:45;;;;;;;12.50;7.50;;;29.80;99.90;;;;;;5067115;28;20195;-64
2021/07/21 11:57:11;;;;;;;13.50;7.85;;;29.90;99.90;;;;;;5066201;28;20171;-64
2021/07/21 11:59:38;;;;;;;9.85;7.60;;;29.90;99.90;;;;;;5066797;28;20240;-64
2021/07/21 12:02:11;;;;;;;12.35;7.50;;;30.00;99.90;;;;;;5064470;28;20168;-64
2021/07/21 12:04:43;;;;;;;8.40;6.45;;;30.10;99.90;;;;;;5066870;28;20167;-64
2021/07/21 12:07:10;;;;;;;8.38;7.50;;;30.20;99.90;;;;;;5066721;28;20179;-64
2021/07/21 12:09:41;;;;;;;8.23;7.15;;;30.40;99.90;;;;;;5066537;28;20177;-64
2021/07/21 12:12:09;;;;;;;9.75;7.90;;;29.80;99.90;;;;;;5063903;28;20184;-64
2021/07/21 12:14:36;;;;;;;8.73;7.82;;;29.60;99.90;;;;;;5066741;28;20164;-65
2021/07/21 12:17:10;;;;;;;10.05;7.30;;;29.60;99.90;;;;;;5066635;28;20165;-64
2021/07/21 12:19:51;;;;;;;7.50;6.80;;;29.60;99.90;;;;;;5066540;28;20533;-64
2021/07/21 12:22:17;;;;;;;7.53;6.80;;;29.70;99.90;;;;;;5064048;28;20534;-64
2021/07/21 12:24:45;;;;;;;61.67;9.63;;;29.70;99.90;;;;;;5066560;28;20239;-64
2021/07/21 12:27:13;;;;;;;19.30;7.00;;;29.90;99.90;;;;;;5066353;28;20240;-64
2021/07/21 12:29:41;;;;;;;12.65;7.25;;;30.20;99.90;;;;;;5065259;28;20167;-65
2021/07/21 12:32:10;;;;;;;14.88;7.72;;;30.30;99.90;;;;;;5063877;28;20192;-65
2021/07/21 12:34:38;;;;;;;24.40;7.72;;;30.40;99.90;;;;;;5066125;28;20168;-64
2021/07/21 12:37:11;;;;;;;14.20;7.90;;;30.30;99.90;;;;;;5066515;28;20168;-64
2021/07/21 12:39:40;;;;;;;10.00;7.97;;;30.60;99.90;;;;;;5066125;28;20178;-65
2021/07/21 12:42:14;;;;;;;8.07;7.28;;;30.90;99.90;;;;;;5063553;28;20171;-64
2021/07/21 12:44:52;;;;;;;15.00;7.07;;;30.80;99.90;;;;;;5065944;28;20178;-64
2021/07/21 12:47:27;;;;;;;32.92;8.20;;;31.00;99.90;;;;;;5066290;28;20175;-64
2021/07/21 12:50:12;;;;;;;8.30;7.00;;;31.00;99.90;;;;;;5066154;28;20206;-64